createdAt,value
2022-12-14T00:01:34.881Z,98075.47
2022-12-14T00:04:01.635Z,98077.12
2022-12-14T00:06:31.047Z,98075.41
2022-12-14T00:09:00.227Z,98073.72
2022-12-14T00:11:27.591Z,98066.84
2022-12-14T00:13:59.531Z,98070.63
2022-12-14T00:16:32.905Z,98070.06
2022-12-14T00:19:01.410Z,98066.22
2022-12-14T00:21:28.805Z,98064.87
2022-12-14T00:23:58.048Z,98056.56
2022-12-14T00:26:32.703Z,98051.69
2022-12-14T00:29:01.342Z,98040.91
2022-12-14T00:31:29.158Z,98051.97
2022-12-14T00:33:56.036Z,98052.44
2022-12-14T00:36:23.402Z,98041.44
2022-12-14T00:38:50.205Z,98036.63
2022-12-14T00:41:16.907Z,98033.78
2022-12-14T00:43:44.176Z,98029.09
2022-12-14T00:46:11.192Z,98035.69
2022-12-14T00:48:37.987Z,98036.34
2022-12-14T00:51:04.964Z,98042.91
2022-12-14T00:53:31.698Z,98039.25
2022-12-14T00:56:05.219Z,98045.03
2022-12-14T00:58:31.994Z,98039.34
2022-12-14T01:01:04.832Z,98038.00
2022-12-14T01:03:32.255Z,98032.69
2022-12-14T01:05:59.481Z,98034.13
2022-12-14T01:08:26.762Z,98029.28
2022-12-14T01:10:53.603Z,98020.94
2022-12-14T01:13:20.420Z,98026.87
2022-12-14T01:15:47.298Z,98019.34
2022-12-14T01:18:14.215Z,98006.88
2022-12-14T01:20:40.964Z,98008.34
2022-12-14T01:23:07.801Z,98002.84
2022-12-14T01:25:34.573Z,98007.00
2022-12-14T01:28:01.459Z,97997.81
2022-12-14T01:30:28.228Z,97991.69
2022-12-14T01:32:54.970Z,97989.66
2022-12-14T01:38:05.845Z,97984.78
2022-12-14T01:40:32.632Z,97989.91
2022-12-14T01:42:59.368Z,97990.34
2022-12-14T01:45:26.186Z,97996.31
2022-12-14T01:47:58.219Z,97989.97
2022-12-14T01:50:54.275Z,97982.00
2022-12-14T01:53:23.532Z,97989.59
2022-12-14T01:55:55.049Z,97985.72
2022-12-14T01:58:24.567Z,97977.75
2022-12-14T02:00:56.734Z,97976.59
2022-12-14T02:03:38.349Z,97972.91
2022-12-14T02:06:17.790Z,97961.06
2022-12-14T02:08:47.755Z,97976.00
2022-12-14T02:11:20.169Z,97982.97
2022-12-14T02:13:48.838Z,97988.09
2022-12-14T02:16:15.921Z,97985.88
2022-12-14T02:18:42.714Z,97980.38
2022-12-14T02:21:21.596Z,97983.84
2022-12-14T02:24:12.417Z,97987.34
2022-12-14T02:26:57.822Z,97978.53
2022-12-14T02:29:34.315Z,97976.69
2022-12-14T02:32:31.604Z,97972.00
2022-12-14T02:35:01.326Z,97964.84
2022-12-14T02:37:53.877Z,97973.47
2022-12-14T02:40:26.664Z,97977.59
2022-12-14T02:43:16.397Z,97972.94
2022-12-14T02:45:50.480Z,97977.03
2022-12-14T02:48:26.738Z,97981.34
2022-12-14T02:51:18.549Z,97971.53
2022-12-14T02:53:52.856Z,97966.00
2022-12-14T02:56:25.698Z,97968.47
2022-12-14T02:58:53.714Z,97947.81
2022-12-14T03:01:25.991Z,97939.66
2022-12-14T03:03:52.878Z,97945.78
2022-12-14T03:06:28.348Z,97948.25
2022-12-14T03:09:09.130Z,97944.41
2022-12-14T03:11:46.589Z,97940.72
2022-12-14T03:14:27.363Z,97948.31
2022-12-14T03:17:01.946Z,97945.47
2022-12-14T03:19:41.141Z,97928.28
2022-12-14T03:22:13.442Z,97918.28
2022-12-14T03:24:52.340Z,97920.75
2022-12-14T03:27:35.492Z,97921.78
2022-12-14T03:30:09.122Z,97920.56
2022-12-14T03:32:42.224Z,97923.22
2022-12-14T03:35:19.176Z,97910.34
2022-12-14T03:38:02.741Z,97914.47
2022-12-14T03:40:47.907Z,97908.12
2022-12-14T03:43:25.718Z,97905.47
2022-12-14T03:46:10.948Z,97896.25
2022-12-14T03:48:45.751Z,97899.75
2022-12-14T03:51:28.392Z,97892.38
2022-12-14T03:54:18.292Z,97897.50
2022-12-14T03:56:54.378Z,97898.13
2022-12-14T03:59:35.849Z,97901.44
2022-12-14T04:02:15.892Z,97906.75
2022-12-14T04:04:51.990Z,97905.56
2022-12-14T04:07:38.022Z,97898.19
2022-12-14T04:10:46.649Z,97895.53
2022-12-14T04:13:37.969Z,97886.34
2022-12-14T04:16:33.642Z,97883.47
2022-12-14T04:19:06.591Z,97873.66
2022-12-14T04:21:54.192Z,97867.09
2022-12-14T04:24:48.774Z,97865.28
2022-12-14T04:27:48.407Z,97874.06
2022-12-14T04:30:15.921Z,97873.25
2022-12-14T04:32:53.915Z,97862.41
2022-12-14T04:35:46.157Z,97864.06
2022-12-14T04:38:22.191Z,97854.22
2022-12-14T04:40:53.366Z,97853.19
2022-12-14T04:43:25.013Z,97853.81
2022-12-14T04:46:04.258Z,97851.97
2022-12-14T04:48:57.647Z,97856.91
2022-12-14T04:51:54.986Z,97854.03
2022-12-14T04:54:39.757Z,97863.50
2022-12-14T04:57:30.520Z,97863.88
2022-12-14T04:59:59.507Z,97854.69
2022-12-14T05:02:35.218Z,97871.50
2022-12-14T05:05:16.807Z,97869.47
2022-12-14T05:07:51.761Z,97863.94
2022-12-14T05:10:41.168Z,97856.97
2022-12-14T05:13:14.892Z,97842.44
2022-12-14T05:15:49.022Z,97837.91
2022-12-14T05:18:16.036Z,97828.09
2022-12-14T05:20:42.867Z,97821.75
2022-12-14T05:23:09.712Z,97822.38
2022-12-14T05:25:36.441Z,97812.53
2022-12-14T05:28:03.508Z,97808.03
2022-12-14T05:30:30.764Z,97794.50
2022-12-14T05:32:57.754Z,97785.28
2022-12-14T05:35:24.932Z,97785.50
2022-12-14T05:37:51.784Z,97786.09
2022-12-14T05:40:18.629Z,97784.06
2022-12-14T05:42:48.750Z,97777.72
2022-12-14T05:45:19.179Z,97769.72
2022-12-14T05:47:45.946Z,97758.88
2022-12-14T05:50:12.761Z,97765.84
2022-12-14T05:52:39.676Z,97773.81
2022-12-14T05:55:06.985Z,97773.44
2022-12-14T05:57:33.806Z,97783.09
2022-12-14T06:00:00.588Z,97783.09
2022-12-14T06:02:27.637Z,97783.91
2022-12-14T06:04:54.514Z,97785.53
2022-12-14T06:07:26.009Z,97785.53
2022-12-14T06:09:54.764Z,97790.66
2022-12-14T06:12:21.626Z,97779.19
2022-12-14T06:14:48.404Z,97772.62
2022-12-14T06:17:15.154Z,97767.31
2022-12-14T06:19:43.234Z,97756.44
2022-12-14T06:22:16.849Z,97757.47
2022-12-14T06:24:43.596Z,97772.22
2022-12-14T06:27:10.346Z,97771.41
2022-12-14T06:29:37.114Z,97773.06
2022-12-14T06:32:03.990Z,97783.91
2022-12-14T06:34:35.274Z,97789.66
2022-12-14T06:37:06.290Z,97767.53
2022-12-14T06:39:33.260Z,97778.78
2022-12-14T06:42:00.011Z,97772.25
2022-12-14T06:44:27.002Z,97773.25
2022-12-14T06:46:53.811Z,97779.22
2022-12-14T06:49:20.598Z,97770.19
2022-12-14T06:51:47.863Z,97757.88
2022-12-14T06:54:15.926Z,97768.34
2022-12-14T06:56:44.725Z,97768.97
2022-12-14T06:59:13.181Z,97770.59
2022-12-14T07:01:40.661Z,97788.44
2022-12-14T07:04:08.789Z,97790.06
2022-12-14T07:06:40.208Z,97787.03
2022-12-14T07:09:11.040Z,97803.66
2022-12-14T07:11:37.829Z,97814.31
2022-12-14T07:14:06.303Z,97823.13
2022-12-14T07:16:34.406Z,97822.31
2022-12-14T07:19:01.228Z,97828.03
2022-12-14T07:21:28.142Z,97826.19
2022-12-14T07:23:54.991Z,97831.31
2022-12-14T07:26:24.560Z,97823.13
2022-12-14T07:28:52.209Z,97827.22
2022-12-14T07:31:24.135Z,97815.53
2022-12-14T07:33:55.950Z,97799.34
2022-12-14T07:36:24.125Z,97778.84
2022-12-14T07:38:52.284Z,97775.16
2022-12-14T07:41:23.055Z,97766.13
2022-12-14T07:43:51.417Z,97772.28
2022-12-14T07:46:21.312Z,97772.88
2022-12-14T07:48:50.782Z,97776.37
2022-12-14T07:51:19.712Z,97780.69
2022-12-14T07:53:46.953Z,97785.03
2022-12-14T07:56:15.933Z,97785.03
2022-12-14T07:58:42.774Z,97792.81
2022-12-14T08:01:18.206Z,97798.75
2022-12-14T08:03:54.174Z,97799.59
2022-12-14T08:06:23.437Z,97792.41
2022-12-14T08:08:51.461Z,97780.72
2022-12-14T08:11:18.821Z,97774.16
2022-12-14T08:13:46.888Z,97766.97
2022-12-14T08:16:16.045Z,97762.47
2022-12-14T08:18:43.512Z,97771.88
2022-12-14T08:21:12.499Z,97763.06
2022-12-14T08:23:41.521Z,97772.50
2022-12-14T08:26:08.578Z,97767.16
2022-12-14T08:28:36.580Z,97761.41
2022-12-14T08:31:14.361Z,97777.22
2022-12-14T08:33:42.114Z,97777.00
2022-12-14T08:36:10.809Z,97768.81
2022-12-14T08:38:38.857Z,97778.44
2022-12-14T08:41:08.292Z,97772.28
2022-12-14T08:43:35.844Z,97771.25
2022-12-14T08:46:02.849Z,97763.91
2022-12-14T08:48:29.811Z,97773.34
2022-12-14T08:51:05.151Z,97776.81
2022-12-14T08:53:32.800Z,97763.50
2022-12-14T08:56:04.903Z,97771.28
2022-12-14T08:58:31.714Z,97770.25
2022-12-14T09:01:03.381Z,97783.37
2022-12-14T09:03:30.744Z,97778.88
2022-12-14T09:06:02.201Z,97764.50
2022-12-14T09:08:29.053Z,97768.00
2022-12-14T09:10:55.766Z,97770.44
2022-12-14T09:13:22.586Z,97772.09
2022-12-14T09:15:58.246Z,97770.03
2022-12-14T09:18:25.079Z,97767.37
2022-12-14T09:20:56.006Z,97766.34
2022-12-14T09:23:24.724Z,97756.50
2022-12-14T09:26:07.345Z,97755.25
2022-12-14T09:28:37.099Z,97755.03
2022-12-14T09:31:06.955Z,97753.81
2022-12-14T09:33:34.467Z,97741.09
2022-12-14T09:36:03.846Z,97745.19
2022-12-14T09:38:32.687Z,97745.19
2022-12-14T09:41:06.930Z,97737.00
2022-12-14T09:43:48.137Z,97731.44
2022-12-14T09:46:40.629Z,97727.53
2022-12-14T09:49:33.446Z,97724.44
2022-12-14T09:52:03.790Z,97722.37
2022-12-14T09:54:38.555Z,97719.50
2022-12-14T09:57:30.495Z,97713.13
2022-12-14T09:59:57.245Z,97709.44
2022-12-14T10:02:46.029Z,97709.84
2022-12-14T10:05:34.739Z,97709.66
2022-12-14T10:08:09.109Z,97706.78
2022-12-14T10:10:56.703Z,97709.22
2022-12-14T10:13:58.950Z,97702.84
2022-12-14T10:16:52.450Z,97706.13
2022-12-14T10:19:33.906Z,97703.25
2022-12-14T10:22:20.555Z,97692.16
2022-12-14T10:24:58.318Z,97698.09
2022-12-14T10:27:37.916Z,97689.66
2022-12-14T10:30:18.617Z,97683.06
2022-12-14T10:33:04.869Z,97669.72
2022-12-14T10:35:48.223Z,97660.47
2022-12-14T10:38:35.758Z,97653.06
2022-12-14T10:41:23.832Z,97634.19
2022-12-14T10:44:16.695Z,97623.28
2022-12-14T10:46:57.249Z,97626.56
2022-12-14T10:49:30.127Z,97630.66
2022-12-14T10:52:12.446Z,97631.03
2022-12-14T10:54:45.329Z,97627.12
2022-12-14T10:57:26.411Z,97626.69
2022-12-14T11:00:07.854Z,97626.47
2022-12-14T11:02:39.768Z,97613.13
2022-12-14T11:06:07.612Z,97602.00
2022-12-14T11:08:41.217Z,97599.75
2022-12-14T11:11:20.988Z,97580.00
2022-12-14T11:13:50.560Z,97582.47
2022-12-14T11:16:23.923Z,97581.41
2022-12-14T11:19:02.058Z,97580.38
2022-12-14T11:21:35.557Z,97564.13
2022-12-14T11:24:03.219Z,97562.06
2022-12-14T11:26:35.581Z,97563.69
2022-12-14T11:29:06.255Z,97556.06
2022-12-14T11:31:53.192Z,97549.91
2022-12-14T11:34:37.867Z,97548.66
2022-12-14T11:37:13.722Z,97542.50
2022-12-14T11:39:44.849Z,97546.56
2022-12-14T11:42:19.990Z,97536.69
2022-12-14T11:44:48.658Z,97542.66
2022-12-14T11:47:25.664Z,97539.97
2022-12-14T11:49:54.596Z,97536.03
2022-12-14T11:52:27.028Z,97530.69
2022-12-14T11:54:56.616Z,97535.84
2022-12-14T11:57:32.140Z,97523.09
2022-12-14T12:00:04.128Z,97529.25
2022-12-14T12:02:56.091Z,97517.53
2022-12-14T12:05:23.953Z,97513.00
2022-12-14T12:07:50.664Z,97513.59
2022-12-14T12:10:25.196Z,97501.06
2022-12-14T12:13:04.457Z,97497.34
2022-12-14T12:15:39.691Z,97500.81
2022-12-14T12:18:31.235Z,97497.94
2022-12-14T12:21:21.717Z,97488.06
2022-12-14T12:24:07.138Z,97476.31
2022-12-14T12:26:49.961Z,97476.31
2022-12-14T12:29:17.158Z,97472.03
2022-12-14T12:31:54.778Z,97470.97
2022-12-14T12:34:33.066Z,97472.63
2022-12-14T12:39:58.863Z,97460.06
2022-12-14T12:42:43.882Z,97451.22
2022-12-14T12:45:32.302Z,97449.38
2022-12-14T12:48:12.179Z,97449.97
2022-12-14T12:50:50.103Z,97440.09
2022-12-14T12:53:39.134Z,97428.38
2022-12-14T12:56:11.605Z,97431.03
2022-12-14T12:58:40.926Z,97427.31
2022-12-14T13:01:18.183Z,97425.25
2022-12-14T13:03:48.078Z,97426.88
2022-12-14T13:06:40.665Z,97421.53
2022-12-14T13:09:18.229Z,97430.13
2022-12-14T13:11:45.913Z,97432.81
2022-12-14T13:14:26.258Z,97433.63
2022-12-14T13:16:55.332Z,97426.47
2022-12-14T13:19:50.260Z,97431.81
2022-12-14T13:22:27.532Z,97431.81
2022-12-14T13:24:59.472Z,97432.63
2022-12-14T13:27:54.816Z,97437.16
2022-12-14T13:30:24.625Z,97424.78
2022-12-14T13:33:10.313Z,97412.47
2022-12-14T13:35:45.776Z,97420.50
2022-12-14T13:38:37.163Z,97423.56
2022-12-14T13:41:23.336Z,97414.50
2022-12-14T13:44:17.761Z,97411.81
2022-12-14T13:46:44.529Z,97405.44
2022-12-14T13:49:22.398Z,97398.00
2022-12-14T13:51:51.744Z,97395.09
2022-12-14T13:54:25.088Z,97382.19
2022-12-14T13:57:03.074Z,97380.34
2022-12-14T13:59:35.774Z,97383.00
2022-12-14T14:02:05.054Z,97387.31
2022-12-14T14:04:34.114Z,97377.44
2022-12-14T14:07:27.194Z,97379.87
2022-12-14T14:10:02.196Z,97373.50
2022-12-14T14:12:28.881Z,97370.00
2022-12-14T14:15:22.734Z,97373.72
2022-12-14T14:17:54.904Z,97370.81
2022-12-14T14:20:38.563Z,97360.12
2022-12-14T14:23:14.525Z,97359.09
2022-12-14T14:25:46.693Z,97351.06
2022-12-14T14:28:22.617Z,97340.13
2022-12-14T14:30:56.742Z,97314.22
2022-12-14T14:33:47.818Z,97305.75
2022-12-14T14:36:33.513Z,97304.34
2022-12-14T14:39:02.478Z,97314.22
2022-12-14T14:41:36.067Z,97342.00
2022-12-14T14:44:07.079Z,97335.59
2022-12-14T14:46:38.149Z,97340.97
2022-12-14T14:49:06.831Z,97344.44
2022-12-14T14:51:36.859Z,97346.06
2022-12-14T14:55:06.484Z,97334.09
2022-12-14T14:57:54.254Z,97339.00
2022-12-14T15:00:21.033Z,97342.13
2022-12-14T15:02:51.668Z,97327.38
2022-12-14T15:08:22.663Z,97327.59
2022-12-14T15:10:50.476Z,97331.06
2022-12-14T15:13:23.315Z,97329.44
2022-12-14T15:15:53.226Z,97321.19
2022-12-14T15:18:25.762Z,97315.25
2022-12-14T15:21:11.082Z,97322.47
2022-12-14T15:23:49.457Z,97318.16
2022-12-14T15:26:28.584Z,97310.16
2022-12-14T15:28:58.271Z,97301.31
2022-12-14T15:31:41.918Z,97303.75
2022-12-14T15:34:16.494Z,97295.72
2022-12-14T15:36:44.233Z,97289.81
2022-12-14T15:39:43.674Z,97287.94
2022-12-14T15:42:16.901Z,97290.50
2022-12-14T15:44:52.155Z,97286.66
2022-12-14T15:47:30.254Z,97293.66
2022-12-14T15:50:30.267Z,97291.44
2022-12-14T15:53:06.874Z,97288.16
2022-12-14T15:55:43.697Z,97295.16
2022-12-14T15:58:17.656Z,97301.09
2022-12-14T16:00:48.229Z,97303.53
2022-12-14T16:03:34.597Z,97301.09
2022-12-14T16:06:02.098Z,97301.09
2022-12-14T16:08:32.332Z,97301.09
2022-12-14T16:11:03.964Z,97302.47
2022-12-14T16:13:36.618Z,97299.81
2022-12-14T16:16:12.678Z,97294.22
2022-12-14T16:18:51.305Z,97295.63
2022-12-14T16:21:29.041Z,97283.09
2022-12-14T16:23:56.609Z,97281.22
2022-12-14T16:26:37.513Z,97284.94
2022-12-14T16:29:19.828Z,97289.47
2022-12-14T16:31:48.007Z,97292.72
2022-12-14T16:34:23.562Z,97290.06
2022-12-14T16:37:14.639Z,97292.72
2022-12-14T16:39:39.961Z,97285.41
2022-12-14T16:42:18.416Z,97280.63
2022-12-14T16:44:45.725Z,97283.91
2022-12-14T16:47:15.639Z,97289.25
2022-12-14T16:49:43.246Z,97285.75
2022-12-14T16:52:09.925Z,97279.59
2022-12-14T16:54:38.047Z,97272.97
2022-12-14T16:57:18.457Z,97266.00
2022-12-14T16:59:57.016Z,97268.66
2022-12-14T17:02:44.224Z,97271.34
2022-12-14T17:05:20.637Z,97266.00
2022-12-14T17:07:48.419Z,97272.16
2022-12-14T17:10:22.696Z,97283.91
2022-12-14T17:12:50.538Z,97279.13
2022-12-14T17:15:22.946Z,97272.75
2022-12-14T17:17:53.075Z,97282.41
2022-12-14T17:20:34.534Z,97282.16
2022-12-14T17:23:02.615Z,97298.66
2022-12-14T17:25:34.736Z,97317.63
2022-12-14T17:28:02.190Z,97316.34
2022-12-14T17:30:29.567Z,97314.47
2022-12-14T17:32:59.785Z,97313.91
2022-12-14T17:35:30.113Z,97333.19
2022-12-14T17:37:58.052Z,97335.66
2022-12-14T17:40:27.080Z,97336.91
2022-12-14T17:42:57.052Z,97337.72
2022-12-14T17:45:29.939Z,97334.00
2022-12-14T17:47:57.889Z,97341.44
2022-12-14T17:50:25.912Z,97347.38
2022-12-14T17:52:53.321Z,97350.88
2022-12-14T17:55:24.285Z,97348.44
2022-12-14T17:57:51.947Z,97351.34
2022-12-14T18:00:43.592Z,97350.06
2022-12-14T18:03:13.375Z,97342.25
2022-12-14T18:05:48.144Z,97338.31
2022-12-14T18:08:17.170Z,97334.63
2022-12-14T18:10:47.297Z,97328.66
2022-12-14T18:13:15.815Z,97322.06
2022-12-14T18:16:03.234Z,97319.16
2022-12-14T18:18:30.741Z,97325.34
2022-12-14T18:21:01.477Z,97332.31
2022-12-14T18:23:31.342Z,97339.53
2022-12-14T18:26:00.795Z,97339.53
2022-12-14T18:28:28.125Z,97337.66
2022-12-14T18:31:05.464Z,97328.25
2022-12-14T18:33:36.184Z,97329.28
2022-12-14T18:36:03.877Z,97322.06
2022-12-14T18:38:31.606Z,97333.59
2022-12-14T18:41:00.666Z,97340.41
2022-12-14T18:43:29.509Z,97332.53
2022-12-14T18:45:57.799Z,97312.19
2022-12-14T18:48:26.380Z,97309.28
2022-12-14T18:50:55.447Z,97309.75
2022-12-14T18:53:24.922Z,97296.38
2022-12-14T18:55:53.856Z,97304.75
2022-12-14T18:58:27.341Z,97286.09
2022-12-14T19:00:59.034Z,97284.25
2022-12-14T19:03:30.301Z,97273.72
2022-12-14T19:08:58.638Z,97267.16
2022-12-14T19:11:35.265Z,97268.22
2022-12-14T19:14:05.180Z,97275.66
2022-12-14T19:16:35.281Z,97270.22
2022-12-14T19:19:05.662Z,97252.91
2022-12-14T19:21:34.534Z,97255.81
2022-12-14T19:24:03.122Z,97271.63
2022-12-14T19:26:31.465Z,97284.84
2022-12-14T19:28:59.910Z,97289.75
2022-12-14T19:31:29.902Z,97290.81
2022-12-14T19:33:58.344Z,97293.25
2022-12-14T19:36:26.644Z,97278.47
2022-12-14T19:38:54.576Z,97279.28
2022-12-14T19:41:22.475Z,97297.78
2022-12-14T19:43:51.876Z,97305.41
2022-12-14T19:46:19.690Z,97310.56
2022-12-14T19:48:51.127Z,97307.88
2022-12-14T19:51:20.066Z,97307.88
2022-12-14T19:53:49.548Z,97303.13
2022-12-14T19:56:17.966Z,97294.06
2022-12-14T19:58:48.320Z,97294.87
2022-12-14T20:01:18.233Z,97301.28
2022-12-14T20:03:46.585Z,97313.81
2022-12-14T20:06:14.677Z,97311.97
2022-12-14T20:08:43.292Z,97304.75
2022-12-14T20:11:13.501Z,97296.50
2022-12-14T20:13:43.181Z,97285.00
2022-12-14T20:16:17.046Z,97296.28
2022-12-14T20:18:45.378Z,97292.78
2022-12-14T20:21:20.146Z,97289.06
2022-12-14T20:23:51.074Z,97280.22
2022-12-14T20:26:22.025Z,97293.00
2022-12-14T20:28:51.828Z,97339.28
2022-12-14T20:31:22.620Z,97332.69
2022-12-14T20:33:51.306Z,97334.31
2022-12-14T20:36:19.742Z,97341.28
2022-12-14T20:38:49.145Z,97323.59
2022-12-14T20:41:19.043Z,97325.25
2022-12-14T20:43:46.683Z,97322.56
2022-12-14T20:46:39.657Z,97321.38
2022-12-14T20:49:11.924Z,97306.97
2022-12-14T20:51:41.100Z,97308.03
2022-12-14T20:54:14.397Z,97287.91
2022-12-14T20:56:42.237Z,97294.87
2022-12-14T20:59:11.419Z,97282.31
2022-12-14T21:01:41.105Z,97289.53
2022-12-14T21:04:09.560Z,97295.69
2022-12-14T21:06:39.136Z,97297.19
2022-12-14T21:09:09.583Z,97295.09
2022-12-14T21:11:58.768Z,97281.56
2022-12-14T21:14:30.153Z,97285.69
2022-12-14T21:16:57.444Z,97282.78
2022-12-14T21:19:25.253Z,97288.78
2022-12-14T21:21:54.206Z,97277.28
2022-12-14T21:24:53.074Z,97271.69
2022-12-14T21:27:15.788Z,97280.53
2022-12-14T21:29:42.652Z,97310.75
2022-12-14T21:32:10.854Z,97290.41
2022-12-14T21:34:39.589Z,97291.69
2022-12-14T21:37:06.859Z,97285.06
2022-12-14T21:39:34.255Z,97284.03
2022-12-14T21:42:13.973Z,97268.22
2022-12-14T21:44:45.235Z,97275.81
2022-12-14T21:47:16.544Z,97263.44
2022-12-14T21:49:44.624Z,97269.84
2022-12-14T21:52:14.086Z,97277.84
2022-12-14T21:54:41.754Z,97279.28
2022-12-14T21:57:34.333Z,97261.81
2022-12-14T22:00:01.506Z,97270.44
2022-12-14T22:02:29.157Z,97265.09
2022-12-14T22:04:56.398Z,97270.66
2022-12-14T22:07:29.060Z,97259.97
2022-12-14T22:09:55.828Z,97267.97
2022-12-14T22:12:22.619Z,97289.38
2022-12-14T22:14:50.036Z,97291.47
2022-12-14T22:17:16.875Z,97306.47
2022-12-14T22:19:43.604Z,97298.91
2022-12-14T22:22:16.842Z,97294.59
2022-12-14T22:24:45.020Z,97285.97
2022-12-14T22:27:12.452Z,97282.50
2022-12-14T22:29:39.527Z,97286.81
2022-12-14T22:32:07.297Z,97289.94
2022-12-14T22:34:34.368Z,97311.41
2022-12-14T22:37:01.218Z,97291.78
2022-12-14T22:39:27.962Z,97290.84
2022-12-14T22:41:54.692Z,97289.44
2022-12-14T22:44:21.500Z,97296.66
2022-12-14T22:46:48.253Z,97298.97
2022-12-14T22:49:19.425Z,97303.91
2022-12-14T22:51:46.663Z,97299.97
2022-12-14T22:54:25.366Z,97307.78
2022-12-14T22:57:00.833Z,97306.59
2022-12-14T22:59:45.327Z,97323.66
2022-12-14T23:02:12.337Z,97329.00
2022-12-14T23:04:39.442Z,97355.84
2022-12-14T23:07:06.464Z,97372.69
2022-12-14T23:09:52.078Z,97380.94
2022-12-14T23:12:37.897Z,97360.00
2022-12-14T23:15:23.854Z,97358.13
2022-12-14T23:18:08.975Z,97380.56
2022-12-14T23:20:57.463Z,97358.38
2022-12-14T23:23:42.806Z,97351.38
2022-12-14T23:26:28.002Z,97360.81
2022-12-14T23:29:12.997Z,97381.16
2022-12-14T23:31:58.197Z,97375.00
2022-12-14T23:34:43.915Z,97385.47
2022-12-14T23:37:29.283Z,97379.28
2022-12-14T23:40:14.390Z,97381.97
2022-12-14T23:42:59.325Z,97385.47
2022-12-14T23:45:44.454Z,97401.50
2022-12-14T23:48:29.962Z,97394.06
2022-12-14T23:51:14.875Z,97381.06
2022-12-14T23:54:00.163Z,97378.03
2022-12-14T23:56:46.104Z,97365.25
2022-12-14T23:59:32.747Z,97369.78
